sensor_id;sensor_type;location;lat;lon;timestamp;pressure;altitude;pressure_sealevel;temperature;humidity
69316;BME280;56445;43.552;5.034;2023-09-19T04:36:07;101554.81;;;36.01;25.73
69316;BME280;56445;43.552;5.034;2023-09-19T04:38:54;101554.56;;;36.06;25.64
69316;BME280;56445;43.552;5.034;2023-09-19T04:41:21;101572.47;;;36.18;25.91
69316;BME280;56445;43.552;5.034;2023-09-19T04:44:18;101565.50;;;36.11;25.67
69316;BME280;56445;43.552;5.034;2023-09-19T04:46:47;101576.50;;;36.17;25.45
69316;BME280;56445;43.552;5.034;2023-09-19T04:49:15;101576.50;;;36.17;25.72
69316;BME280;56445;43.552;5.034;2023-09-19T04:51:45;101554.47;;;36.03;25.44
69316;BME280;56445;43.552;5.034;2023-09-19T04:54:39;101569.22;;;36.16;25.43
69316;BME280;56445;43.552;5.034;2023-09-19T04:57:13;101566.06;;;36.01;25.67
69316;BME280;56445;43.552;5.034;2023-09-19T04:59:58;101556.75;;;35.97;25.39
69316;BME280;56445;43.552;5.034;2023-09-19T05:02:55;101570.75;;;36.13;25.70
69316;BME280;56445;43.552;5.034;2023-09-19T05:05:39;101587.41;;;36.22;25.79
69316;BME280;56445;43.552;5.034;2023-09-19T05:08:09;101573.13;;;36.11;25.66
69316;BME280;56445;43.552;5.034;2023-09-19T05:10:39;101583.00;;;36.21;25.65
69316;BME280;56445;43.552;5.034;2023-09-19T05:13:08;101594.41;;;36.28;25.65
69316;BME280;56445;43.552;5.034;2023-09-19T05:15:44;101585.44;;;36.22;25.72
69316;BME280;56445;43.552;5.034;2023-09-19T05:18:18;101597.66;;;36.30;25.71
69316;BME280;56445;43.552;5.034;2023-09-19T05:20:45;101585.91;;;36.24;25.42
69316;BME280;56445;43.552;5.034;2023-09-19T05:23:33;101586.25;;;36.23;25.48
69316;BME280;56445;43.552;5.034;2023-09-19T05:29:06;101573.81;;;36.08;25.46
69316;BME280;56445;43.552;5.034;2023-09-19T05:31:38;101606.38;;;36.25;25.51
69316;BME280;56445;43.552;5.034;2023-09-19T05:34:08;101577.03;;;36.06;25.56
69316;BME280;56445;43.552;5.034;2023-09-19T05:36:35;101597.41;;;36.19;25.54
69316;BME280;56445;43.552;5.034;2023-09-19T05:39:03;101600.66;;;36.21;25.52
69316;BME280;56445;43.552;5.034;2023-09-19T05:41:31;101611.09;;;36.21;25.37
69316;BME280;56445;43.552;5.034;2023-09-19T05:43:58;101582.56;;;36.03;25.56
69316;BME280;56445;43.552;5.034;2023-09-19T05:46:29;101598.75;;;36.09;25.45
69316;BME280;56445;43.552;5.034;2023-09-19T05:48:57;101611.34;;;36.16;25.32
69316;BME280;56445;43.552;5.034;2023-09-19T05:51:24;101630.31;;;36.19;25.25
69316;BME280;56445;43.552;5.034;2023-09-19T05:53:54;101607.63;;;36.11;25.25
69316;BME280;56445;43.552;5.034;2023-09-19T05:56:22;101611.19;;;36.08;25.47
69316;BME280;56445;43.552;5.034;2023-09-19T05:58:50;101602.66;;;36.05;25.21
69316;BME280;56445;43.552;5.034;2023-09-19T06:01:20;101621.22;;;36.09;25.40
69316;BME280;56445;43.552;5.034;2023-09-19T06:03:47;101596.78;;;35.94;25.21
69316;BME280;56445;43.552;5.034;2023-09-19T06:06:14;101620.13;;;35.98;25.49
69316;BME280;56445;43.552;5.034;2023-09-19T06:08:41;101600.59;;;35.86;25.40
69316;BME280;56445;43.552;5.034;2023-09-19T06:11:11;101623.88;;;36.02;25.28
69316;BME280;56445;43.552;5.034;2023-09-19T06:13:38;101605.13;;;35.90;25.12
69316;BME280;56445;43.552;5.034;2023-09-19T06:16:06;101617.25;;;35.94;25.37
69316;BME280;56445;43.552;5.034;2023-09-19T06:18:33;101614.34;;;35.91;25.18
69316;BME280;56445;43.552;5.034;2023-09-19T06:21:01;101612.81;;;35.93;25.31
69316;BME280;56445;43.552;5.034;2023-09-19T06:23:32;101615.34;;;35.99;25.16
69316;BME280;56445;43.552;5.034;2023-09-19T06:25:59;101596.59;;;35.87;25.13
69316;BME280;56445;43.552;5.034;2023-09-19T06:28:27;101617.88;;;36.04;25.15
69316;BME280;56445;43.552;5.034;2023-09-19T06:30:55;101604.03;;;35.95;25.11
69316;BME280;56445;43.552;5.034;2023-09-19T06:33:25;101607.19;;;36.09;25.42
69316;BME280;56445;43.552;5.034;2023-09-19T06:35:52;101592.97;;;36.02;25.27
69316;BME280;56445;43.552;5.034;2023-09-19T06:38:26;101588.97;;;36.03;24.91
69316;BME280;56445;43.552;5.034;2023-09-19T06:40:53;101607.84;;;36.19;25.14
69316;BME280;56445;43.552;5.034;2023-09-19T06:43:21;101607.09;;;36.22;25.39
69316;BME280;56445;43.552;5.034;2023-09-19T06:45:54;101600.31;;;36.23;25.12
69316;BME280;56445;43.552;5.034;2023-09-19T06:48:21;101585.38;;;36.19;25.21
69316;BME280;56445;43.552;5.034;2023-09-19T06:50:56;101590.97;;;36.19;25.34
69316;BME280;56445;43.552;5.034;2023-09-19T06:53:26;101588.63;;;36.21;25.31
69316;BME280;56445;43.552;5.034;2023-09-19T06:55:53;101583.44;;;36.23;25.28
69316;BME280;56445;43.552;5.034;2023-09-19T06:58:21;101582.72;;;36.26;25.12
69316;BME280;56445;43.552;5.034;2023-09-19T07:00:48;101591.03;;;36.38;24.97
69316;BME280;56445;43.552;5.034;2023-09-19T07:03:17;101593.09;;;36.41;25.16
69316;BME280;56445;43.552;5.034;2023-09-19T07:05:48;101597.31;;;36.51;25.37
69316;BME280;56445;43.552;5.034;2023-09-19T07:08:15;101593.78;;;36.54;25.23
69316;BME280;56445;43.552;5.034;2023-09-19T07:10:42;101607.28;;;36.64;24.98
69316;BME280;56445;43.552;5.034;2023-09-19T07:13:27;101584.59;;;36.57;25.04
69316;BME280;56445;43.552;5.034;2023-09-19T07:16:09;101601.44;;;36.73;25.27
69316;BME280;56445;43.552;5.034;2023-09-19T07:18:37;101606.78;;;36.78;25.09
69316;BME280;56445;43.552;5.034;2023-09-19T07:21:07;101609.44;;;36.90;25.11
69316;BME280;56445;43.552;5.034;2023-09-19T07:23:40;101592.03;;;36.85;25.42
69316;BME280;56445;43.552;5.034;2023-09-19T07:26:16;101596.25;;;36.95;25.19
69316;BME280;56445;43.552;5.034;2023-09-19T07:28:43;101605.81;;;37.09;25.05
69316;BME280;56445;43.552;5.034;2023-09-19T07:31:10;101614.56;;;37.24;25.05
69316;BME280;56445;43.552;5.034;2023-09-19T07:33:37;101595.53;;;37.17;25.08
69316;BME280;56445;43.552;5.034;2023-09-19T07:36:05;101618.03;;;37.37;25.15
69316;BME280;56445;43.552;5.034;2023-09-19T07:38:34;101604.75;;;37.37;25.17
69316;BME280;56445;43.552;5.034;2023-09-19T07:41:03;101619.44;;;37.50;25.20
69316;BME280;56445;43.552;5.034;2023-09-19T07:43:32;101609.53;;;37.56;25.31
69316;BME280;56445;43.552;5.034;2023-09-19T07:46:05;101603.44;;;37.54;25.27
69316;BME280;56445;43.552;5.034;2023-09-19T07:48:34;101614.94;;;37.65;25.43
69316;BME280;56445;43.552;5.034;2023-09-19T07:51:07;101607.72;;;37.67;25.14
69316;BME280;56445;43.552;5.034;2023-09-19T07:53:38;101604.13;;;37.67;25.23
69316;BME280;56445;43.552;5.034;2023-09-19T07:56:07;101605.56;;;37.80;24.90
69316;BME280;56445;43.552;5.034;2023-09-19T07:58:35;101617.75;;;37.88;24.86
69316;BME280;56445;43.552;5.034;2023-09-19T08:01:04;101612.22;;;37.95;25.19
69316;BME280;56445;43.552;5.034;2023-09-19T08:03:33;101588.38;;;37.89;25.33
69316;BME280;56445;43.552;5.034;2023-09-19T08:06:01;101612.44;;;38.06;25.09
69316;BME280;56445;43.552;5.034;2023-09-19T08:08:28;101610.53;;;38.14;25.09
69316;BME280;56445;43.552;5.034;2023-09-19T08:10:56;101607.75;;;38.17;25.50
69316;BME280;56445;43.552;5.034;2023-09-19T08:13:24;101599.31;;;38.17;25.18
69316;BME280;56445;43.552;5.034;2023-09-19T08:15:52;101598.94;;;38.19;24.95
69316;BME280;56445;43.552;5.034;2023-09-19T08:18:23;101590.41;;;38.15;25.11
69316;BME280;56445;43.552;5.034;2023-09-19T08:20:51;101597.84;;;38.27;25.13
69316;BME280;56445;43.552;5.034;2023-09-19T08:23:19;101589.44;;;38.31;25.14
69316;BME280;56445;43.552;5.034;2023-09-19T08:25:48;101613.00;;;38.45;24.86
69316;BME280;56445;43.552;5.034;2023-09-19T08:28:16;101596.03;;;38.42;24.90
69316;BME280;56445;43.552;5.034;2023-09-19T08:30:49;101613.59;;;38.58;24.92
69316;BME280;56445;43.552;5.034;2023-09-19T08:33:19;101602.81;;;38.64;24.78
69316;BME280;56445;43.552;5.034;2023-09-19T08:35:47;101597.94;;;38.61;25.01
69316;BME280;56445;43.552;5.034;2023-09-19T08:38:16;101607.72;;;38.71;25.34
69316;BME280;56445;43.552;5.034;2023-09-19T08:40:49;101596.13;;;38.76;25.01
69316;BME280;56445;43.552;5.034;2023-09-19T08:43:17;101604.78;;;38.94;24.65
69316;BME280;56445;43.552;5.034;2023-09-19T08:45:44;101598.34;;;38.93;25.07
69316;BME280;56445;43.552;5.034;2023-09-19T08:48:23;101602.50;;;39.03;24.87
69316;BME280;56445;43.552;5.034;2023-09-19T08:51:06;101610.72;;;39.15;25.28
69316;BME280;56445;43.552;5.034;2023-09-19T08:56:10;101618.56;;;39.33;25.06
69316;BME280;56445;43.552;5.034;2023-09-19T08:58:59;101617.06;;;39.42;25.11
69316;BME280;56445;43.552;5.034;2023-09-19T09:01:29;101619.22;;;39.56;25.15
69316;BME280;56445;43.552;5.034;2023-09-19T09:03:56;101603.13;;;39.60;24.91
69316;BME280;56445;43.552;5.034;2023-09-19T09:06:25;101609.78;;;39.86;25.05
69316;BME280;56445;43.552;5.034;2023-09-19T09:08:53;101613.97;;;40.03;25.23
69316;BME280;56445;43.552;5.034;2023-09-19T09:11:21;101609.59;;;40.13;24.77
69316;BME280;56445;43.552;5.034;2023-09-19T09:13:50;101607.66;;;40.24;24.80
69316;BME280;56445;43.552;5.034;2023-09-19T09:16:17;101615.94;;;40.51;24.93
69316;BME280;56445;43.552;5.034;2023-09-19T09:18:46;101606.28;;;40.66;24.95
69316;BME280;56445;43.552;5.034;2023-09-19T09:21:21;101612.50;;;40.86;24.84
69316;BME280;56445;43.552;5.034;2023-09-19T09:23:49;101624.69;;;41.12;24.76
69316;BME280;56445;43.552;5.034;2023-09-19T09:29:04;101607.00;;;41.69;24.93
69316;BME280;56445;43.552;5.034;2023-09-19T09:31:31;101624.81;;;42.01;24.88
69316;BME280;56445;43.552;5.034;2023-09-19T09:33:58;101620.75;;;42.28;24.69
69316;BME280;56445;43.552;5.034;2023-09-19T09:36:37;101607.38;;;42.46;24.67
69316;BME280;56445;43.552;5.034;2023-09-19T09:39:05;101605.25;;;42.68;24.75
69316;BME280;56445;43.552;5.034;2023-09-19T09:41:46;101627.44;;;42.95;24.71
69316;BME280;56445;43.552;5.034;2023-09-19T09:46:42;101631.28;;;43.37;24.78
69316;BME280;56445;43.552;5.034;2023-09-19T09:49:26;101615.41;;;43.43;24.38
69316;BME280;56445;43.552;5.034;2023-09-19T09:52:05;101617.66;;;43.70;24.34
69316;BME280;56445;43.552;5.034;2023-09-19T09:55:02;101613.88;;;43.84;24.37
69316;BME280;56445;43.552;5.034;2023-09-19T09:57:34;101612.94;;;43.94;24.33
69316;BME280;56445;43.552;5.034;2023-09-19T10:00:02;101604.72;;;44.07;24.71
69316;BME280;56445;43.552;5.034;2023-09-19T10:02:56;101590.38;;;44.21;24.23
69316;BME280;56445;43.552;5.034;2023-09-19T10:05:24;101599.56;;;44.36;24.52
69316;BME280;56445;43.552;5.034;2023-09-19T10:07:55;101608.66;;;44.58;24.20
69316;BME280;56445;43.552;5.034;2023-09-19T10:10:37;101620.38;;;44.64;24.13
69316;BME280;56445;43.552;5.034;2023-09-19T10:13:22;101610.50;;;44.72;24.11
69316;BME280;56445;43.552;5.034;2023-09-19T10:15:52;101599.84;;;44.80;24.39
69316;BME280;56445;43.552;5.034;2023-09-19T10:18:26;101621.53;;;45.01;24.35
69316;BME280;56445;43.552;5.034;2023-09-19T10:20:56;101609.28;;;45.04;23.84
69316;BME280;56445;43.552;5.034;2023-09-19T10:23:26;101617.97;;;45.20;24.14
69316;BME280;56445;43.552;5.034;2023-09-19T10:25:57;101605.78;;;45.20;23.90
69316;BME280;56445;43.552;5.034;2023-09-19T10:28:30;101611.28;;;45.34;23.91
69316;BME280;56445;43.552;5.034;2023-09-19T10:30:57;101606.72;;;45.40;24.05
69316;BME280;56445;43.552;5.034;2023-09-19T10:33:26;101611.81;;;45.52;23.74
69316;BME280;56445;43.552;5.034;2023-09-19T10:36:00;101593.41;;;45.57;23.83
69316;BME280;56445;43.552;5.034;2023-09-19T10:38:27;101613.09;;;45.75;23.91
69316;BME280;56445;43.552;5.034;2023-09-19T10:40:56;101622.31;;;45.83;23.73
69316;BME280;56445;43.552;5.034;2023-09-19T10:43:32;101612.53;;;45.84;23.91
69316;BME280;56445;43.552;5.034;2023-09-19T10:46:06;101609.47;;;45.95;23.71
69316;BME280;56445;43.552;5.034;2023-09-19T10:48:34;101604.44;;;46.02;23.60
69316;BME280;56445;43.552;5.034;2023-09-19T10:51:21;101581.63;;;46.02;23.62
69316;BME280;56445;43.552;5.034;2023-09-19T10:53:58;101602.13;;;46.17;23.65
69316;BME280;56445;43.552;5.034;2023-09-19T10:56:32;101596.00;;;46.19;23.52
69316;BME280;56445;43.552;5.034;2023-09-19T10:59:11;101604.50;;;46.22;23.29
69316;BME280;56445;43.552;5.034;2023-09-19T11:01:54;101597.47;;;46.27;23.34
69316;BME280;56445;43.552;5.034;2023-09-19T11:04:29;101582.41;;;46.26;23.45
69316;BME280;56445;43.552;5.034;2023-09-19T11:09:50;101591.34;;;46.48;23.25
69316;BME280;56445;43.552;5.034;2023-09-19T11:15:08;101572.38;;;46.58;23.11
69316;BME280;56445;43.552;5.034;2023-09-19T11:17:38;101585.09;;;46.74;23.12
69316;BME280;56445;43.552;5.034;2023-09-19T11:30:46;101574.28;;;47.01;22.92
69316;BME280;56445;43.552;5.034;2023-09-19T11:33:24;101568.78;;;47.11;23.06
69316;BME280;56445;43.552;5.034;2023-09-19T11:36:13;101579.38;;;47.10;22.80
69316;BME280;56445;43.552;5.034;2023-09-19T11:43:53;101573.34;;;47.24;22.73
69316;BME280;56445;43.552;5.034;2023-09-19T11:46:26;101562.19;;;47.30;22.57
69316;BME280;56445;43.552;5.034;2023-09-19T11:49:08;101564.50;;;47.35;22.49
69316;BME280;56445;43.552;5.034;2023-09-19T11:51:41;101556.84;;;47.32;22.67
69316;BME280;56445;43.552;5.034;2023-09-19T11:54:13;101558.97;;;47.44;22.74
69316;BME280;56445;43.552;5.034;2023-09-19T11:56:52;101553.59;;;47.46;22.57
69316;BME280;56445;43.552;5.034;2023-09-19T11:59:21;101535.41;;;47.40;22.52
69316;BME280;56445;43.552;5.034;2023-09-19T12:01:57;101533.16;;;47.48;22.56
69316;BME280;56445;43.552;5.034;2023-09-19T12:04:44;101541.47;;;47.59;22.35
69316;BME280;56445;43.552;5.034;2023-09-19T12:07:15;101515.53;;;47.50;21.98
69316;BME280;56445;43.552;5.034;2023-09-19T12:10:03;101515.88;;;47.52;22.37
69316;BME280;56445;43.552;5.034;2023-09-19T12:12:31;101533.25;;;47.61;22.24
69316;BME280;56445;43.552;5.034;2023-09-19T12:15:00;101529.59;;;47.60;21.82
69316;BME280;56445;43.552;5.034;2023-09-19T12:17:41;101535.31;;;47.60;21.95
69316;BME280;56445;43.552;5.034;2023-09-19T12:20:10;101516.72;;;47.52;22.14
69316;BME280;56445;43.552;5.034;2023-09-19T12:22:45;101514.66;;;47.53;22.31
69316;BME280;56445;43.552;5.034;2023-09-19T12:25:13;101519.66;;;47.65;22.00
69316;BME280;56445;43.552;5.034;2023-09-19T12:27:44;101523.13;;;47.73;22.04
69316;BME280;56445;43.552;5.034;2023-09-19T12:30:15;101514.19;;;47.71;22.19
69316;BME280;56445;43.552;5.034;2023-09-19T12:32:47;101513.91;;;47.81;22.17
69316;BME280;56445;43.552;5.034;2023-09-19T12:35:33;101514.94;;;47.88;21.75
69316;BME280;56445;43.552;5.034;2023-09-19T12:38:03;101516.88;;;47.91;22.09
69316;BME280;56445;43.552;5.034;2023-09-19T12:40:32;101503.16;;;47.85;21.96
69316;BME280;56445;43.552;5.034;2023-09-19T12:43:01;101513.16;;;47.94;21.91
69316;BME280;56445;43.552;5.034;2023-09-19T12:45:32;101516.16;;;48.03;21.82
69316;BME280;56445;43.552;5.034;2023-09-19T12:48:21;101509.53;;;48.06;21.97
69316;BME280;56445;43.552;5.034;2023-09-19T12:51:09;101503.72;;;48.10;21.93
69316;BME280;56445;43.552;5.034;2023-09-19T12:53:44;101494.19;;;48.13;21.94
69316;BME280;56445;43.552;5.034;2023-09-19T12:56:15;101495.13;;;48.10;21.81
69316;BME280;56445;43.552;5.034;2023-09-19T12:58:56;101474.53;;;48.15;21.51
69316;BME280;56445;43.552;5.034;2023-09-19T13:01:26;101496.75;;;48.23;21.35
69316;BME280;56445;43.552;5.034;2023-09-19T13:06:47;101471.31;;;48.13;21.48
69316;BME280;56445;43.552;5.034;2023-09-19T13:09:20;101472.00;;;48.17;21.66
69316;BME280;56445;43.552;5.034;2023-09-19T13:11:48;101471.00;;;48.23;21.27
69316;BME280;56445;43.552;5.034;2023-09-19T13:14:25;101474.13;;;48.29;21.15
69316;BME280;56445;43.552;5.034;2023-09-19T13:17:05;101473.66;;;48.31;21.55
69316;BME280;56445;43.552;5.034;2023-09-19T13:19:47;101466.94;;;48.37;21.62
69316;BME280;56445;43.552;5.034;2023-09-19T13:22:41;101470.38;;;48.45;21.54
69316;BME280;56445;43.552;5.034;2023-09-19T13:25:16;101480.78;;;48.52;21.57
69316;BME280;56445;43.552;5.034;2023-09-19T13:27:55;101461.66;;;48.61;21.24
69316;BME280;56445;43.552;5.034;2023-09-19T13:30:27;101443.56;;;48.64;21.54
69316;BME280;56445;43.552;5.034;2023-09-19T13:33:08;101445.63;;;48.77;21.41
69316;BME280;56445;43.552;5.034;2023-09-19T13:35:38;101453.63;;;48.95;21.17
69316;BME280;56445;43.552;5.034;2023-09-19T13:38:07;101463.13;;;49.05;21.00
69316;BME280;56445;43.552;5.034;2023-09-19T13:40:39;101459.34;;;49.08;21.22
69316;BME280;56445;43.552;5.034;2023-09-19T13:43:09;101445.25;;;49.00;21.02
69316;BME280;56445;43.552;5.034;2023-09-19T13:45:37;101437.03;;;49.02;21.27
69316;BME280;56445;43.552;5.034;2023-09-19T13:48:05;101452.94;;;49.03;20.93
69316;BME280;56445;43.552;5.034;2023-09-19T13:50:32;101451.00;;;48.88;21.07
69316;BME280;56445;43.552;5.034;2023-09-19T13:53:00;101443.44;;;48.81;21.15
69316;BME280;56445;43.552;5.034;2023-09-19T13:55:27;101454.69;;;48.75;20.66
69316;BME280;56445;43.552;5.034;2023-09-19T13:57:54;101454.00;;;48.71;21.06
69316;BME280;56445;43.552;5.034;2023-09-19T14:00:23;101457.53;;;48.75;20.89
69316;BME280;56445;43.552;5.034;2023-09-19T14:02:50;101448.28;;;48.71;20.84
69316;BME280;56445;43.552;5.034;2023-09-19T14:05:18;101454.13;;;48.68;20.60
69316;BME280;56445;43.552;5.034;2023-09-19T14:07:48;101439.66;;;48.58;20.49
69316;BME280;56445;43.552;5.034;2023-09-19T14:10:15;101438.84;;;48.58;20.58
69316;BME280;56445;43.552;5.034;2023-09-19T14:12:45;101446.31;;;48.55;20.29
69316;BME280;56445;43.552;5.034;2023-09-19T14:15:12;101436.91;;;48.42;20.49
69316;BME280;56445;43.552;5.034;2023-09-19T14:17:40;101433.94;;;48.33;20.53
69316;BME280;56445;43.552;5.034;2023-09-19T14:20:12;101443.44;;;48.30;20.79
69316;BME280;56445;43.552;5.034;2023-09-19T14:22:41;101442.38;;;48.23;20.31
69316;BME280;56445;43.552;5.034;2023-09-19T14:25:08;101443.41;;;48.17;20.19
69316;BME280;56445;43.552;5.034;2023-09-19T14:27:36;101439.16;;;48.09;20.52
69316;BME280;56445;43.552;5.034;2023-09-19T14:30:03;101443.94;;;47.99;20.16
69316;BME280;56445;43.552;5.034;2023-09-19T14:32:31;101430.41;;;47.86;20.26
69316;BME280;56445;43.552;5.034;2023-09-19T14:34:58;101430.22;;;47.94;20.50
69316;BME280;56445;43.552;5.034;2023-09-19T14:37:25;101443.84;;;48.02;20.27
69316;BME280;56445;43.552;5.034;2023-09-19T14:39:54;101433.78;;;47.98;20.04
69316;BME280;56445;43.552;5.034;2023-09-19T14:42:22;101438.81;;;48.06;20.00
69316;BME280;56445;43.552;5.034;2023-09-19T14:44:49;101436.53;;;48.14;20.21
69316;BME280;56445;43.552;5.034;2023-09-19T14:47:16;101431.28;;;48.25;20.27
69316;BME280;56445;43.552;5.034;2023-09-19T14:49:44;101426.94;;;48.21;19.77
69316;BME280;56445;43.552;5.034;2023-09-19T14:52:11;101427.41;;;48.19;20.03
69316;BME280;56445;43.552;5.034;2023-09-19T14:54:42;101426.00;;;48.24;20.21
69316;BME280;56445;43.552;5.034;2023-09-19T14:57:10;101426.56;;;48.19;20.07
69316;BME280;56445;43.552;5.034;2023-09-19T14:59:37;101428.88;;;48.24;20.06
69316;BME280;56445;43.552;5.034;2023-09-19T15:02:04;101424.53;;;48.19;19.72
69316;BME280;56445;43.552;5.034;2023-09-19T15:04:32;101422.56;;;48.16;19.57
69316;BME280;56445;43.552;5.034;2023-09-19T15:07:00;101407.09;;;48.01;19.74
69316;BME280;56445;43.552;5.034;2023-09-19T15:09:29;101405.44;;;47.87;19.87
69316;BME280;56445;43.552;5.034;2023-09-19T15:11:59;101429.81;;;47.79;19.73
69316;BME280;56445;43.552;5.034;2023-09-19T15:14:26;101412.63;;;47.50;19.79
69316;BME280;56445;43.552;5.034;2023-09-19T15:16:53;101412.69;;;47.33;19.87
69316;BME280;56445;43.552;5.034;2023-09-19T15:19:21;101415.22;;;47.15;20.04
69316;BME280;56445;43.552;5.034;2023-09-19T15:21:49;101406.88;;;46.91;19.82
69316;BME280;56445;43.552;5.034;2023-09-19T15:24:16;101417.53;;;46.70;19.82
69316;BME280;56445;43.552;5.034;2023-09-19T15:26:45;101409.50;;;46.49;19.99
69316;BME280;56445;43.552;5.034;2023-09-19T15:29:13;101401.88;;;46.26;19.79
69316;BME280;56445;43.552;5.034;2023-09-19T15:31:40;101411.19;;;46.10;20.03
69316;BME280;56445;43.552;5.034;2023-09-19T15:34:07;101392.19;;;45.83;19.86
69316;BME280;56445;43.552;5.034;2023-09-19T15:36:37;101398.13;;;45.72;20.01
69316;BME280;56445;43.552;5.034;2023-09-19T15:39:07;101397.56;;;45.58;20.15
69316;BME280;56445;43.552;5.034;2023-09-19T15:41:45;101382.38;;;45.44;20.00
69316;BME280;56445;43.552;5.034;2023-09-19T15:44:19;101392.09;;;45.27;19.99
69316;BME280;56445;43.552;5.034;2023-09-19T15:46:46;101407.34;;;45.13;20.07
69316;BME280;56445;43.552;5.034;2023-09-19T15:49:14;101400.72;;;44.96;20.09
69316;BME280;56445;43.552;5.034;2023-09-19T15:51:41;101386.78;;;44.78;19.95
69316;BME280;56445;43.552;5.034;2023-09-19T15:54:14;101399.38;;;44.77;20.01
69316;BME280;56445;43.552;5.034;2023-09-19T15:56:42;101390.19;;;44.69;20.24
69316;BME280;56445;43.552;5.034;2023-09-19T15:59:10;101400.81;;;44.65;19.95
69316;BME280;56445;43.552;5.034;2023-09-19T16:01:42;101383.06;;;44.58;20.28
69316;BME280;56445;43.552;5.034;2023-09-19T16:04:11;101389.28;;;44.49;19.85
69316;BME280;56445;43.552;5.034;2023-09-19T16:06:39;101398.66;;;44.46;20.31
69316;BME280;56445;43.552;5.034;2023-09-19T16:09:06;101385.00;;;44.33;19.98
69316;BME280;56445;43.552;5.034;2023-09-19T16:11:34;101396.47;;;44.30;19.90
69316;BME280;56445;43.552;5.034;2023-09-19T16:14:05;101383.25;;;44.16;20.00
69316;BME280;56445;43.552;5.034;2023-09-19T16:16:37;101383.31;;;44.12;20.32
69316;BME280;56445;43.552;5.034;2023-09-19T16:19:05;101387.00;;;44.06;19.83
69316;BME280;56445;43.552;5.034;2023-09-19T16:21:38;101379.81;;;43.97;20.08
69316;BME280;56445;43.552;5.034;2023-09-19T16:24:07;101382.38;;;43.88;20.04
69316;BME280;56445;43.552;5.034;2023-09-19T16:26:36;101385.31;;;43.81;20.65
69316;BME280;56445;43.552;5.034;2023-09-19T16:29:04;101376.94;;;43.67;20.08
69316;BME280;56445;43.552;5.034;2023-09-19T16:31:33;101387.47;;;43.70;20.05
69316;BME280;56445;43.552;5.034;2023-09-19T16:34:02;101378.66;;;43.57;19.98
69316;BME280;56445;43.552;5.034;2023-09-19T16:36:29;101375.50;;;43.51;20.15
69316;BME280;56445;43.552;5.034;2023-09-19T16:39:00;101359.78;;;43.40;20.27
69316;BME280;56445;43.552;5.034;2023-09-19T16:41:33;101366.31;;;43.36;20.11
69316;BME280;56445;43.552;5.034;2023-09-19T16:44:05;101357.88;;;43.29;20.32
69316;BME280;56445;43.552;5.034;2023-09-19T16:46:41;101360.41;;;43.16;20.20
69316;BME280;56445;43.552;5.034;2023-09-19T16:49:14;101372.53;;;43.21;20.09
69316;BME280;56445;43.552;5.034;2023-09-19T16:51:46;101370.16;;;43.15;20.22
69316;BME280;56445;43.552;5.034;2023-09-19T16:54:14;101367.78;;;43.10;20.36
69316;BME280;56445;43.552;5.034;2023-09-19T16:56:41;101379.97;;;43.07;20.08
69316;BME280;56445;43.552;5.034;2023-09-19T16:59:08;101366.28;;;42.95;20.21
69316;BME280;56445;43.552;5.034;2023-09-19T17:01:37;101374.00;;;42.94;20.47
69316;BME280;56445;43.552;5.034;2023-09-19T17:04:04;101386.53;;;42.97;20.35
69316;BME280;56445;43.552;5.034;2023-09-19T17:06:34;101395.91;;;42.94;20.27
69316;BME280;56445;43.552;5.034;2023-09-19T17:09:03;101397.16;;;42.89;20.04
69316;BME280;56445;43.552;5.034;2023-09-19T17:11:31;101401.22;;;42.85;20.35
69316;BME280;56445;43.552;5.034;2023-09-19T17:13:58;101396.00;;;42.79;20.14
69316;BME280;56445;43.552;5.034;2023-09-19T17:16:26;101383.56;;;42.66;20.14
69316;BME280;56445;43.552;5.034;2023-09-19T17:18:56;101389.22;;;42.66;20.25
69316;BME280;56445;43.552;5.034;2023-09-19T17:21:25;101402.16;;;42.67;20.17
69316;BME280;56445;43.552;5.034;2023-09-19T17:23:53;101398.16;;;42.61;20.05
69316;BME280;56445;43.552;5.034;2023-09-19T17:26:22;101382.03;;;42.44;20.23
69316;BME280;56445;43.552;5.034;2023-09-19T17:28:54;101382.50;;;42.38;20.54
69316;BME280;56445;43.552;5.034;2023-09-19T17:31:23;101388.97;;;42.39;20.40
69316;BME280;56445;43.552;5.034;2023-09-19T17:33:53;101375.66;;;42.29;20.09
69316;BME280;56445;43.552;5.034;2023-09-19T17:36:25;101388.22;;;42.31;20.25
69316;BME280;56445;43.552;5.034;2023-09-19T17:38:56;101382.56;;;42.24;20.54
69316;BME280;56445;43.552;5.034;2023-09-19T17:41:25;101370.50;;;42.09;20.58
69316;BME280;56445;43.552;5.034;2023-09-19T17:43:58;101366.91;;;42.05;20.40
69316;BME280;56445;43.552;5.034;2023-09-19T17:46:26;101374.59;;;42.01;20.29
69316;BME280;56445;43.552;5.034;2023-09-19T17:48:58;101375.41;;;41.94;20.11
69316;BME280;56445;43.552;5.034;2023-09-19T17:51:25;101381.53;;;41.86;20.67
69316;BME280;56445;43.552;5.034;2023-09-19T17:53:54;101365.41;;;41.72;20.56
69316;BME280;56445;43.552;5.034;2023-09-19T17:56:27;101390.03;;;41.82;20.29
69316;BME280;56445;43.552;5.034;2023-09-19T17:58:54;101371.91;;;41.61;20.22
69316;BME280;56445;43.552;5.034;2023-09-19T18:01:23;101384.81;;;41.59;20.38
69316;BME280;56445;43.552;5.034;2023-09-19T18:03:53;101382.44;;;41.50;20.44
69316;BME280;56445;43.552;5.034;2023-09-19T18:06:25;101390.53;;;41.48;20.45
69316;BME280;56445;43.552;5.034;2023-09-19T18:08:52;101390.94;;;41.43;20.52
69316;BME280;56445;43.552;5.034;2023-09-19T18:11:23;101409.16;;;41.46;20.42
69316;BME280;56445;43.552;5.034;2023-09-19T18:13:55;101390.97;;;41.29;20.62
69316;BME280;56445;43.552;5.034;2023-09-19T18:16:22;101401.50;;;41.25;20.53
69316;BME280;56445;43.552;5.034;2023-09-19T18:18:54;101422.13;;;41.29;20.44
69316;BME280;56445;43.552;5.034;2023-09-19T18:21:23;101403.50;;;41.13;20.67